Time;durP1;ratioP1;P1;durP2;ratioP2;P2;SDS_P1;SDS_P2;PMS_P1;PMS_P2;Temp;Humidity;BMP_temperature;BMP_pressure;BME280_temperature;BME280_humidity;BME280_pressure;Samples;Min_cycle;Max_cycle;Signal;HPM_P1;HPM_P2
2023/10/19 00:00:48;;;;;;;0.20;0.20;;;8.60;99.90;;;;;;5036461;28;20175;-80
2023/10/19 00:03:15;;;;;;;0.20;0.20;;;8.60;99.90;;;;;;5063800;28;20554;-80
2023/10/19 00:05:41;;;;;;;0.10;0.10;;;8.60;99.90;;;;;;5050245;28;20558;-81
2023/10/19 00:10:42;;;;;;;0.20;0.20;;;8.60;99.90;;;;;;5058996;28;20047;-80
2023/10/19 00:13:09;;;;;;;0.20;0.20;;;9.10;99.90;;;;;;5046443;28;20489;-81
2023/10/19 00:15:39;;;;;;;0.15;0.15;;;8.60;99.90;;;;;;5051216;28;20045;-81
2023/10/19 00:18:27;;;;;;;0.20;0.20;;;8.60;99.90;;;;;;5048572;28;20485;-82
2023/10/19 00:21:04;;;;;;;0.10;0.10;;;8.60;99.90;;;;;;5044971;28;20049;-80
2023/10/19 00:23:31;;;;;;;0.20;0.20;;;8.70;99.90;;;;;;5051082;28;20109;-81
2023/10/19 00:25:59;;;;;;;0.10;0.10;;;8.60;99.90;;;;;;5038316;28;20484;-80
2023/10/19 00:28:27;;;;;;;0.20;0.20;;;8.50;99.90;;;;;;5047906;28;20060;-79
2023/10/19 00:30:53;;;;;;;0.10;0.10;;;8.60;99.90;;;;;;5045918;28;20071;-81
2023/10/19 00:33:20;;;;;;;0.20;0.20;;;8.50;99.90;;;;;;5041027;28;20197;-81
2023/10/19 00:36:08;;;;;;;0.10;0.10;;;8.50;99.90;;;;;;5041668;28;21293;-81
2023/10/19 00:41:11;;;;;;;0.20;0.20;;;8.40;99.90;;;;;;5060029;28;20055;-81
2023/10/19 00:43:44;;;;;;;0.15;0.15;;;8.50;99.90;;;;;;5049887;28;20055;-81
2023/10/19 00:47:03;;;;;;;0.20;0.20;;;8.10;99.90;;;;;;5045094;28;20063;-81
2023/10/19 00:48:59;;;;;;;0.20;0.20;;;8.40;99.90;;;;;;5033048;28;20048;-81
2023/10/19 00:54:08;;;;;;;0.20;0.20;;;8.40;99.90;;;;;;5033632;28;20077;-81
2023/10/19 00:56:34;;;;;;;0.20;0.20;;;8.40;99.90;;;;;;5047612;28;20093;-81
2023/10/19 00:59:12;;;;;;;0.20;0.20;;;8.40;99.90;;;;;;5044407;28;20045;-81
2023/10/19 01:01:43;;;;;;;0.20;0.20;;;8.50;99.90;;;;;;5040559;28;20452;-81
2023/10/19 01:04:14;;;;;;;0.20;0.20;;;8.40;99.90;;;;;;5047631;28;20071;-80
2023/10/19 01:06:43;;;;;;;0.10;0.10;;;8.40;99.90;;;;;;5046703;28;20082;-80
2023/10/19 01:09:14;;;;;;;0.10;0.10;;;8.80;99.90;;;;;;5049419;28;20048;-81
2023/10/19 01:11:42;;;;;;;0.17;0.17;;;8.50;99.90;;;;;;5044797;28;20053;-81
2023/10/19 01:14:27;;;;;;;0.20;0.20;;;8.40;99.90;;;;;;5042398;28;20037;-82
2023/10/19 01:16:56;;;;;;;0.20;0.20;;;7.40;99.90;;;;;;5046746;28;20408;-81
2023/10/19 01:19:23;;;;;;;0.20;0.20;;;8.50;99.90;;;;;;5038871;28;20397;-82
2023/10/19 01:21:53;;;;;;;0.10;0.10;;;8.50;99.90;;;;;;5045386;28;20037;-80
2023/10/19 01:24:41;;;;;;;0.20;0.20;;;8.40;99.90;;;;;;5048502;28;20060;-82
2023/10/19 01:27:10;;;;;;;0.20;0.20;;;8.40;99.90;;;;;;5045782;28;20044;-81
2023/10/19 01:29:37;;;;;;;0.20;0.20;;;8.40;99.90;;;;;;5046290;28;20049;-80
2023/10/19 01:32:08;;;;;;;0.10;0.10;;;8.50;99.90;;;;;;5046210;28;20044;-82
2023/10/19 01:34:34;;;;;;;0.13;0.13;;;8.40;99.90;;;;;;5036670;28;20134;-81
2023/10/19 01:37:04;;;;;;;0.20;0.20;;;8.40;99.90;;;;;;5046242;28;20099;-81
2023/10/19 01:39:37;;;;;;;0.10;0.10;;;8.40;99.90;;;;;;5042385;28;20045;-81
2023/10/19 01:42:08;;;;;;;0.20;0.20;;;8.40;99.90;;;;;;5037640;28;20492;-81
2023/10/19 01:44:35;;;;;;;;;;;8.40;99.90;;;;;;5051699;28;20040;-81
2023/10/19 01:47:01;;;;;;;0.20;0.20;;;8.40;99.90;;;;;;5042318;28;19977;-81
2023/10/19 01:49:28;;;;;;;0.20;0.20;;;8.40;99.90;;;;;;5048919;28;20839;-80
2023/10/19 01:51:54;;;;;;;0.10;0.10;;;8.40;99.90;;;;;;5049193;28;20055;-82
2023/10/19 01:54:25;;;;;;;0.20;0.20;;;8.40;99.90;;;;;;5042093;28;20045;-81
2023/10/19 01:56:56;;;;;;;0.20;0.20;;;8.40;99.90;;;;;;5040313;28;20036;-80
2023/10/19 01:59:27;;;;;;;0.10;0.10;;;8.40;99.90;;;;;;5044508;28;20119;-81
2023/10/19 02:01:57;;;;;;;0.20;0.20;;;8.60;99.90;;;;;;5045323;28;20048;-82
2023/10/19 02:04:24;;;;;;;0.20;0.20;;;8.30;99.90;;;;;;5040972;28;20059;-82
2023/10/19 02:06:52;;;;;;;0.20;0.20;;;8.40;99.90;;;;;;5033963;28;20532;-80
2023/10/19 02:09:26;;;;;;;0.20;0.20;;;8.70;99.90;;;;;;5048222;28;20048;-81
2023/10/19 02:11:55;;;;;;;0.20;0.20;;;8.40;99.90;;;;;;5050098;28;20059;-81
2023/10/19 02:14:21;;;;;;;0.10;0.10;;;8.40;99.90;;;;;;5048956;28;20056;-82
2023/10/19 02:16:52;;;;;;;0.20;0.20;;;8.40;99.90;;;;;;5045986;28;20040;-82
2023/10/19 02:19:21;;;;;;;0.13;0.13;;;8.40;99.90;;;;;;5047589;28;20067;-82
2023/10/19 02:21:56;;;;;;;0.10;0.10;;;8.40;99.90;;;;;;5052798;28;20055;-82
2023/10/19 02:24:21;;;;;;;0.10;0.10;;;8.30;99.90;;;;;;5041310;28;20080;-83
2023/10/19 02:26:53;;;;;;;0.20;0.20;;;8.30;99.90;;;;;;5051339;28;20079;-83
2023/10/19 02:29:19;;;;;;;0.17;0.17;;;8.40;99.90;;;;;;5057240;28;20040;-82
2023/10/19 02:31:46;;;;;;;0.10;0.10;;;8.90;99.90;;;;;;5039772;28;20072;-82
2023/10/19 02:34:15;;;;;;;0.20;0.20;;;8.30;99.90;;;;;;5048011;28;20589;-82
2023/10/19 02:36:42;;;;;;;0.10;0.10;;;8.30;99.90;;;;;;5045808;28;20056;-83
2023/10/19 02:39:09;;;;;;;0.20;0.20;;;8.30;99.90;;;;;;5046102;28;20583;-82
2023/10/19 02:41:41;;;;;;;0.10;0.10;;;8.40;99.90;;;;;;5048877;28;20070;-84
2023/10/19 02:47:05;;;;;;;0.10;0.10;;;8.30;99.90;;;;;;5042174;28;20071;-84
2023/10/19 02:49:31;;;;;;;0.20;0.20;;;8.30;99.90;;;;;;5047856;28;20040;-82
2023/10/19 02:52:03;;;;;;;0.20;0.20;;;8.60;99.90;;;;;;5047077;28;20895;-85
2023/10/19 02:54:32;;;;;;;0.20;0.20;;;8.30;99.90;;;;;;5046966;28;20044;-83
2023/10/19 02:56:58;;;;;;;0.10;0.10;;;8.30;99.90;;;;;;5049853;28;20047;-83
2023/10/19 02:59:27;;;;;;;0.15;0.15;;;8.30;99.90;;;;;;5046400;28;20036;-84
2023/10/19 03:02:06;;;;;;;0.20;0.20;;;8.30;99.90;;;;;;5045249;28;20048;-83
2023/10/19 03:04:35;;;;;;;0.20;0.20;;;8.30;99.90;;;;;;5042571;28;20500;-83
2023/10/19 03:07:02;;;;;;;0.20;0.20;;;8.70;99.90;;;;;;5045594;28;20068;-84
2023/10/19 03:11:56;;;;;;;0.20;0.20;;;8.70;99.90;;;;;;5042253;28;20045;-84
2023/10/19 03:14:25;;;;;;;0.20;0.20;;;8.30;99.90;;;;;;5047504;28;20072;-84
2023/10/19 03:16:51;;;;;;;0.10;0.10;;;8.30;99.90;;;;;;5043534;28;20385;-82
2023/10/19 03:19:17;;;;;;;0.10;0.10;;;8.30;99.90;;;;;;5044436;28;20054;-83
2023/10/19 03:21:43;;;;;;;0.10;0.10;;;8.30;99.90;;;;;;5053360;28;20127;-83
2023/10/19 03:24:59;;;;;;;0.13;0.13;;;8.30;99.90;;;;;;5052407;28;20102;-85
2023/10/19 03:26:59;;;;;;;0.15;0.15;;;8.40;99.90;;;;;;5010788;28;20141;-84
2023/10/19 03:29:31;;;;;;;0.20;0.20;;;8.30;99.90;;;;;;5031018;28;20460;-83
2023/10/19 03:31:58;;;;;;;0.20;0.20;;;8.30;99.90;;;;;;5029428;28;20701;-83
2023/10/19 03:34:24;;;;;;;0.13;0.13;;;8.30;99.90;;;;;;5027898;28;20096;-84
2023/10/19 03:36:54;;;;;;;0.20;0.20;;;8.30;99.90;;;;;;5030672;28;20053;-83
2023/10/19 03:39:21;;;;;;;0.10;0.10;;;8.70;99.90;;;;;;5018919;28;20096;-83
2023/10/19 03:41:49;;;;;;;0.20;0.20;;;8.90;99.90;;;;;;5033792;28;20037;-84
2023/10/19 03:44:23;;;;;;;0.10;0.10;;;8.30;99.90;;;;;;5022190;28;20493;-84
2023/10/19 03:47:03;;;;;;;0.10;0.10;;;9.20;99.90;;;;;;5024405;28;20658;-82
2023/10/19 03:49:36;;;;;;;0.10;0.10;;;8.30;99.90;;;;;;5032975;28;20056;-83
2023/10/19 03:54:41;;;;;;;0.20;0.20;;;8.30;99.90;;;;;;5042647;28;20136;-84
2023/10/19 03:57:11;;;;;;;0.20;0.20;;;8.30;99.90;;;;;;5020603;28;20057;-83
2023/10/19 03:59:40;;;;;;;0.10;0.10;;;8.40;99.90;;;;;;5027540;28;20573;-84
2023/10/19 04:02:13;;;;;;;0.20;0.20;;;8.30;99.90;;;;;;5020267;28;20053;-84
2023/10/19 04:04:48;;;;;;;0.20;0.20;;;8.30;99.90;;;;;;5030175;28;20037;-84
2023/10/19 04:07:20;;;;;;;0.10;0.10;;;8.30;99.90;;;;;;5021079;28;20045;-84
2023/10/19 04:12:46;;;;;;;0.20;0.20;;;8.30;99.90;;;;;;5003480;28;20052;-84
2023/10/19 04:15:18;;;;;;;0.20;0.20;;;8.30;99.90;;;;;;5021687;28;20041;-83
2023/10/19 04:17:48;;;;;;;0.20;0.20;;;8.40;99.90;;;;;;5028006;28;20674;-84
2023/10/19 04:22:49;;;;;;;0.10;0.10;;;9.00;99.90;;;;;;5029273;28;20077;-83
2023/10/19 04:25:16;;;;;;;0.20;0.20;;;8.40;99.90;;;;;;5026818;28;20056;-82
2023/10/19 04:27:43;;;;;;;0.10;0.10;;;8.40;99.90;;;;;;5052452;28;20048;-83
2023/10/19 04:30:15;;;;;;;0.20;0.20;;;8.40;99.90;;;;;;5051092;28;20049;-83
2023/10/19 04:32:45;;;;;;;0.20;0.20;;;8.40;99.90;;;;;;5063730;28;20102;-84
2023/10/19 04:35:14;;;;;;;0.10;0.10;;;8.60;99.90;;;;;;5041431;28;20083;-82
2023/10/19 04:37:44;;;;;;;0.17;0.17;;;8.40;99.90;;;;;;5044820;28;20455;-82
2023/10/19 04:40:12;;;;;;;0.20;0.20;;;8.50;99.90;;;;;;5054382;28;20032;-83
2023/10/19 04:42:38;;;;;;;0.20;0.20;;;8.40;99.90;;;;;;5046759;28;20055;-83
2023/10/19 04:45:05;;;;;;;0.20;0.20;;;8.40;99.90;;;;;;5050040;28;20040;-83
2023/10/19 04:47:35;;;;;;;0.20;0.20;;;8.40;99.90;;;;;;5045109;28;20588;-83
2023/10/19 04:50:05;;;;;;;0.13;0.13;;;8.40;99.90;;;;;;5045831;28;20090;-83
2023/10/19 04:52:31;;;;;;;0.10;0.10;;;8.40;99.90;;;;;;5046145;28;20052;-84
2023/10/19 04:54:58;;;;;;;0.10;0.10;;;8.40;99.90;;;;;;5065738;28;20384;-84
2023/10/19 04:57:23;;;;;;;0.10;0.10;;;8.40;99.90;;;;;;5055045;28;20127;-84
2023/10/19 04:59:49;;;;;;;0.20;0.20;;;8.50;99.90;;;;;;5035601;28;20479;-83
2023/10/19 05:02:16;;;;;;;0.20;0.20;;;8.50;99.90;;;;;;5049138;28;20539;-84
2023/10/19 05:04:43;;;;;;;0.20;0.20;;;8.50;99.90;;;;;;5050141;28;20047;-83
2023/10/19 05:07:14;;;;;;;0.20;0.20;;;8.50;99.90;;;;;;5046221;28;20054;-84
2023/10/19 05:09:40;;;;;;;0.20;0.20;;;8.50;99.90;;;;;;5041480;28;20498;-83
2023/10/19 05:12:09;;;;;;;0.10;0.10;;;8.50;99.90;;;;;;5048701;28;20048;-84
2023/10/19 05:14:39;;;;;;;0.20;0.20;;;8.50;99.90;;;;;;5048411;28;20039;-83
2023/10/19 05:17:12;;;;;;;0.20;0.20;;;8.50;99.90;;;;;;5043540;28;20145;-85
2023/10/19 05:19:39;;;;;;;0.20;0.20;;;8.50;99.90;;;;;;5039596;28;20048;-83
2023/10/19 05:22:10;;;;;;;0.20;0.20;;;8.50;99.90;;;;;;5045927;28;20736;-84
2023/10/19 05:24:36;;;;;;;0.20;0.20;;;8.80;99.90;;;;;;5038959;28;20061;-84
2023/10/19 05:27:02;;;;;;;0.20;0.20;;;8.50;99.90;;;;;;5049084;28;20158;-83
2023/10/19 05:29:30;;;;;;;0.10;0.10;;;9.00;99.90;;;;;;5051541;28;20531;-84
2023/10/19 05:31:57;;;;;;;0.10;0.10;;;8.50;99.90;;;;;;5064145;28;20037;-84
2023/10/19 05:34:26;;;;;;;0.10;0.10;;;8.50;99.90;;;;;;5047763;28;20116;-83
2023/10/19 05:36:53;;;;;;;0.15;0.15;;;9.10;99.90;;;;;;5048094;28;20537;-82
2023/10/19 05:39:20;;;;;;;0.10;0.10;;;8.60;99.90;;;;;;5043763;28;20053;-85
2023/10/19 05:41:46;;;;;;;0.20;0.20;;;8.60;99.90;;;;;;5046681;28;20092;-85
2023/10/19 05:44:12;;;;;;;0.17;0.17;;;8.50;99.90;;;;;;5045240;28;20040;-84
2023/10/19 05:46:40;;;;;;;0.20;0.20;;;8.60;99.90;;;;;;5050136;28;20040;-85
2023/10/19 05:49:06;;;;;;;0.10;0.10;;;8.50;99.90;;;;;;5046746;28;20399;-85
2023/10/19 05:51:32;;;;;;;0.10;0.10;;;8.60;99.90;;;;;;5051366;28;20555;-85
2023/10/19 05:54:04;;;;;;;0.20;0.20;;;8.50;99.90;;;;;;5050581;28;20084;-84
2023/10/19 05:56:31;;;;;;;0.20;0.20;;;8.60;99.90;;;;;;5047508;28;20052;-84
2023/10/19 05:58:57;;;;;;;0.20;0.20;;;8.60;99.90;;;;;;5044336;28;20045;-77
2023/10/19 06:01:24;;;;;;;0.10;0.10;;;8.60;99.90;;;;;;5064687;28;20435;-72
2023/10/19 06:03:50;;;;;;;0.10;0.10;;;8.50;99.90;;;;;;5057637;28;20048;-74
2023/10/19 06:06:16;;;;;;;0.20;0.20;;;8.50;99.90;;;;;;5034237;28;20044;-72
2023/10/19 06:08:41;;;;;;;0.10;0.10;;;8.70;99.90;;;;;;5056139;28;20482;-72
2023/10/19 06:11:07;;;;;;;0.10;0.10;;;8.60;99.90;;;;;;5034367;28;20777;-71
2023/10/19 06:13:33;;;;;;;0.17;0.17;;;8.60;99.90;;;;;;5035845;28;20048;-72
2023/10/19 06:15:58;;;;;;;0.20;0.20;;;8.60;99.90;;;;;;5058681;28;20040;-72
2023/10/19 06:18:24;;;;;;;0.20;0.20;;;8.60;99.90;;;;;;5050418;28;20474;-72
2023/10/19 06:20:51;;;;;;;0.20;0.20;;;8.60;99.90;;;;;;5042045;28;20044;-73
2023/10/19 06:23:17;;;;;;;0.20;0.20;;;8.50;99.90;;;;;;5032237;28;20102;-73
2023/10/19 06:25:44;;;;;;;0.20;0.20;;;8.60;99.90;;;;;;5041780;28;20055;-72
2023/10/19 06:28:11;;;;;;;0.10;0.10;;;8.60;99.90;;;;;;5043359;28;20109;-72
2023/10/19 06:30:37;;;;;;;0.10;0.10;;;8.60;99.90;;;;;;5041145;28;20123;-73
2023/10/19 06:33:03;;;;;;;0.20;0.20;;;9.20;99.90;;;;;;5040604;28;20113;-72
2023/10/19 06:35:31;;;;;;;0.15;0.15;;;8.60;99.90;;;;;;5036986;28;20371;-73
2023/10/19 06:37:58;;;;;;;0.15;0.15;;;8.60;99.90;;;;;;5032401;28;20048;-73
2023/10/19 06:40:26;;;;;;;0.17;0.17;;;8.60;99.90;;;;;;5062464;28;20055;-73
2023/10/19 06:42:55;;;;;;;0.20;0.20;;;8.60;99.90;;;;;;5048418;28;20447;-73
2023/10/19 06:45:21;;;;;;;0.20;0.20;;;8.60;99.90;;;;;;5035164;28;20045;-73
2023/10/19 06:47:48;;;;;;;0.20;0.20;;;8.60;99.90;;;;;;5042300;28;20131;-73
2023/10/19 06:50:16;;;;;;;0.10;0.10;;;8.80;99.90;;;;;;5049357;28;20577;-73
2023/10/19 06:52:43;;;;;;;0.10;0.10;;;8.70;99.90;;;;;;5050399;28;20059;-72
2023/10/19 06:55:13;;;;;;;0.10;0.10;;;8.60;99.90;;;;;;5033971;28;20082;-72
2023/10/19 06:57:45;;;;;;;0.10;0.10;;;8.60;99.90;;;;;;5063305;28;20044;-72
2023/10/19 07:00:19;;;;;;;0.20;0.20;;;8.60;99.90;;;;;;5047617;28;20067;-72
2023/10/19 07:02:50;;;;;;;0.15;0.15;;;8.60;99.90;;;;;;5031865;28;20128;-72
2023/10/19 07:05:35;;;;;;;0.20;0.20;;;8.60;99.90;;;;;;5041911;28;20045;-72
2023/10/19 07:08:02;;;;;;;0.10;0.10;;;8.60;99.90;;;;;;5052089;28;20056;-72
2023/10/19 07:10:28;;;;;;;0.10;0.10;;;8.60;99.90;;;;;;5050760;28;20058;-73
2023/10/19 07:12:55;;;;;;;0.20;0.20;;;8.60;99.90;;;;;;5068567;28;20044;-73
2023/10/19 07:15:23;;;;;;;0.20;0.20;;;8.90;99.90;;;;;;5045018;28;20480;-72
2023/10/19 07:17:52;;;;;;;0.20;0.20;;;9.10;99.90;;;;;;5051705;28;20071;-73
2023/10/19 07:20:35;;;;;;;0.20;0.20;;;8.70;99.90;;;;;;5048909;28;20045;-73
2023/10/19 07:23:06;;;;;;;0.20;0.20;;;8.60;99.90;;;;;;5049308;28;20405;-73
2023/10/19 07:25:42;;;;;;;0.20;0.20;;;8.70;99.90;;;;;;5030259;28;20056;-73
2023/10/19 07:28:17;;;;;;;0.10;0.10;;;8.70;99.90;;;;;;5033631;28;20155;-73
2023/10/19 07:30:43;;;;;;;0.20;0.20;;;8.70;99.90;;;;;;5069065;28;20044;-73
2023/10/19 07:33:10;;;;;;;0.15;0.15;;;8.70;99.90;;;;;;5066588;28;20051;-73
2023/10/19 07:35:42;;;;;;;0.15;0.15;;;8.60;99.90;;;;;;5055818;28;20059;-73
2023/10/19 07:38:08;;;;;;;0.10;0.10;;;8.60;99.90;;;;;;5051290;28;20076;-73
2023/10/19 07:40:35;;;;;;;0.10;0.10;;;8.70;99.90;;;;;;5047310;28;20142;-73
2023/10/19 07:43:01;;;;;;;0.20;0.20;;;8.60;99.90;;;;;;5048852;28;20048;-73
2023/10/19 07:45:27;;;;;;;0.20;0.20;;;8.70;99.90;;;;;;5033247;28;20469;-73
2023/10/19 07:47:53;;;;;;;0.10;0.10;;;8.70;99.90;;;;;;5044359;28;20044;-73
2023/10/19 07:50:19;;;;;;;0.20;0.20;;;8.70;99.90;;;;;;5041302;28;20041;-73
2023/10/19 07:52:48;;;;;;;0.20;0.20;;;8.70;99.90;;;;;;5046810;28;20045;-72
2023/10/19 07:55:14;;;;;;;0.10;0.10;;;8.70;99.90;;;;;;5046516;28;20123;-73
2023/10/19 07:57:42;;;;;;;0.20;0.20;;;8.70;99.90;;;;;;5067189;28;20139;-73
2023/10/19 08:00:11;;;;;;;0.10;0.10;;;8.80;99.90;;;;;;5068302;28;20272;-73
2023/10/19 08:02:41;;;;;;;0.20;0.20;;;8.70;99.90;;;;;;5034042;28;20041;-73
2023/10/19 08:05:08;;;;;;;0.10;0.10;;;8.70;99.90;;;;;;5034392;28;20085;-73
2023/10/19 08:07:37;;;;;;;0.15;0.15;;;8.80;99.90;;;;;;5045855;28;20459;-73
2023/10/19 08:10:05;;;;;;;0.10;0.10;;;8.70;99.90;;;;;;5050573;28;20080;-73
2023/10/19 08:12:32;;;;;;;0.20;0.20;;;8.70;99.90;;;;;;5070631;28;20049;-73
2023/10/19 08:14:59;;;;;;;0.20;0.20;;;8.80;99.90;;;;;;5053092;28;20048;-73
2023/10/19 08:17:25;;;;;;;0.10;0.10;;;8.70;99.90;;;;;;5052114;28;20056;-73
2023/10/19 08:19:51;;;;;;;0.10;0.10;;;8.70;99.90;;;;;;5071478;28;20052;-72
2023/10/19 08:22:16;;;;;;;0.20;0.20;;;8.70;99.90;;;;;;5058179;28;20041;-73
2023/10/19 08:24:43;;;;;;;0.10;0.10;;;8.70;99.90;;;;;;5041783;28;20436;-73
2023/10/19 08:27:12;;;;;;;0.10;0.10;;;8.70;99.90;;;;;;5038679;28;20507;-73
2023/10/19 08:29:39;;;;;;;0.10;0.10;;;8.70;99.90;;;;;;5051638;28;20040;-73
2023/10/19 08:32:06;;;;;;;0.20;0.20;;;8.70;99.90;;;;;;5048098;28;20074;-73
2023/10/19 08:34:39;;;;;;;0.20;0.20;;;8.70;99.90;;;;;;5063297;28;20079;-73
2023/10/19 08:37:05;;;;;;;0.20;0.20;;;8.80;99.90;;;;;;5032044;28;20542;-73
2023/10/19 08:39:37;;;;;;;0.20;0.20;;;8.70;99.90;;;;;;5032975;28;20301;-73
2023/10/19 08:42:04;;;;;;;0.15;0.15;;;8.80;99.90;;;;;;5048074;28;20048;-73
2023/10/19 08:44:30;;;;;;;0.10;0.10;;;8.80;99.90;;;;;;5051975;28;20052;-73
2023/10/19 08:46:59;;;;;;;0.10;0.10;;;8.80;99.90;;;;;;5053065;28;20047;-73
2023/10/19 08:49:28;;;;;;;0.20;0.20;;;8.80;99.90;;;;;;5050963;28;20056;-74
2023/10/19 08:51:54;;;;;;;0.20;0.20;;;8.90;99.90;;;;;;5033211;28;20037;-73
2023/10/19 08:54:20;;;;;;;0.20;0.20;;;8.90;99.90;;;;;;5032269;28;20080;-73
2023/10/19 08:56:47;;;;;;;0.10;0.10;;;8.80;99.90;;;;;;5049818;28;20079;-73
2023/10/19 08:59:15;;;;;;;0.20;0.20;;;9.10;99.90;;;;;;5065444;28;20522;-73
2023/10/19 09:01:44;;;;;;;0.20;0.20;;;8.80;99.90;;;;;;5045508;28;20045;-73
2023/10/19 09:04:11;;;;;;;0.20;0.20;;;8.80;99.90;;;;;;5036216;28;20047;-73
2023/10/19 09:06:44;;;;;;;0.10;0.10;;;8.80;99.90;;;;;;5051556;28;20039;-73
2023/10/19 09:09:19;;;;;;;0.10;0.10;;;8.90;99.90;;;;;;5052283;28;20060;-72
2023/10/19 09:11:48;;;;;;;0.10;0.10;;;8.80;99.90;;;;;;5066089;28;20044;-73
2023/10/19 09:14:17;;;;;;;0.10;0.10;;;8.90;99.90;;;;;;5052577;28;20057;-73
2023/10/19 09:16:56;;;;;;;0.10;0.10;;;8.90;99.90;;;;;;5068933;28;20040;-73
2023/10/19 09:19:44;;;;;;;0.10;0.10;;;9.00;99.90;;;;;;5039343;28;20053;-73
2023/10/19 09:22:18;;;;;;;0.20;0.20;;;8.90;99.90;;;;;;5048824;28;20504;-73
2023/10/19 09:24:49;;;;;;;0.10;0.10;;;8.90;99.90;;;;;;5044952;28;20143;-73
2023/10/19 09:27:19;;;;;;;0.10;0.10;;;8.90;99.90;;;;;;5050823;28;20066;-73
2023/10/19 09:29:48;;;;;;;0.20;0.20;;;8.90;99.90;;;;;;5050848;28;20060;-73
2023/10/19 09:32:13;;;;;;;0.10;0.10;;;8.90;99.90;;;;;;5051442;28;20132;-72
2023/10/19 09:34:44;;;;;;;0.13;0.13;;;8.90;99.90;;;;;;5046864;28;20127;-72
2023/10/19 09:37:11;;;;;;;0.13;0.13;;;9.10;99.90;;;;;;5063074;28;20136;-72
2023/10/19 09:39:37;;;;;;;0.17;0.17;;;9.00;99.90;;;;;;5048803;28;20044;-73
2023/10/19 09:42:06;;;;;;;0.10;0.10;;;8.90;99.90;;;;;;5052160;28;20082;-73
2023/10/19 09:44:41;;;;;;;0.20;0.20;;;9.00;99.90;;;;;;5068522;28;20525;-73
2023/10/19 09:47:30;;;;;;;0.17;0.17;;;9.00;99.90;;;;;;5057278;28;20561;-72
2023/10/19 09:49:57;;;;;;;0.13;0.13;;;9.00;99.90;;;;;;5043551;28;20439;-73
2023/10/19 09:52:24;;;;;;;0.20;0.20;;;9.00;99.90;;;;;;5046786;28;20434;-72
2023/10/19 09:55:13;;;;;;;0.17;0.17;;;9.00;99.90;;;;;;5034638;28;20102;-72
2023/10/19 09:57:55;;;;;;;0.20;0.20;;;9.00;99.90;;;;;;5049253;28;20098;-72
2023/10/19 10:00:23;;;;;;;0.17;0.17;;;9.10;99.90;;;;;;5035084;28;20048;-72
2023/10/19 10:02:51;;;;;;;0.13;0.13;;;9.00;99.90;;;;;;5046637;28;20045;-72
2023/10/19 10:05:44;;;;;;;0.20;0.20;;;9.10;99.90;;;;;;5039376;28;20508;-73
2023/10/19 10:08:30;;;;;;;0.13;0.13;;;9.10;99.90;;;;;;5042117;28;20523;-73
2023/10/19 10:10:56;;;;;;;0.10;0.10;;;9.10;99.90;;;;;;5044270;28;20041;-73
2023/10/19 10:13:26;;;;;;;0.10;0.10;;;9.50;99.90;;;;;;5049298;28;20048;-72
2023/10/19 10:15:56;;;;;;;0.15;0.15;;;9.30;99.90;;;;;;5048889;28;20582;-72
2023/10/19 10:18:26;;;;;;;0.10;0.10;;;9.30;99.90;;;;;;5049883;28;20099;-72
2023/10/19 10:21:15;;;;;;;0.20;0.20;;;9.60;99.90;;;;;;5044472;28;20049;-72
2023/10/19 10:23:57;;;;;;;0.10;0.10;;;9.20;99.90;;;;;;5047799;28;20044;-75
2023/10/19 10:26:25;;;;;;;0.20;0.20;;;9.30;99.90;;;;;;5045100;28;20060;-72
2023/10/19 10:29:09;;;;;;;0.10;0.10;;;9.30;99.90;;;;;;5066592;28;20554;-72
2023/10/19 10:31:40;;;;;;;0.10;0.10;;;9.30;99.90;;;;;;5051162;28;20055;-72
2023/10/19 10:34:09;;;;;;;0.20;0.20;;;9.30;99.90;;;;;;5050557;28;20044;-72
2023/10/19 10:37:03;;;;;;;0.20;0.20;;;9.80;99.90;;;;;;5049475;28;20501;-72
2023/10/19 10:39:30;;;;;;;0.10;0.10;;;9.40;99.90;;;;;;5048424;28;20082;-72
2023/10/19 10:42:05;;;;;;;0.10;0.10;;;9.60;99.90;;;;;;5050303;28;20055;-72
2023/10/19 10:44:41;;;;;;;0.10;0.10;;;9.30;99.90;;;;;;5049326;28;20056;-72
2023/10/19 10:47:20;;;;;;;0.10;0.10;;;9.90;99.90;;;;;;5048213;28;20048;-72
2023/10/19 10:49:54;;;;;;;0.10;0.10;;;9.40;99.90;;;;;;5048965;28;20047;-72
2023/10/19 10:52:33;;;;;;;0.20;0.20;;;9.40;99.90;;;;;;5040002;28;20056;-72
2023/10/19 10:55:13;;;;;;;0.10;0.10;;;9.50;99.90;;;;;;5066221;28;20083;-72
2023/10/19 10:57:43;;;;;;;0.20;0.20;;;9.40;99.90;;;;;;5047358;28;20043;-71
2023/10/19 11:00:14;;;;;;;0.20;0.20;;;9.40;99.90;;;;;;5047438;28;20048;-72
2023/10/19 11:02:43;;;;;;;0.20;0.20;;;10.50;99.90;;;;;;5050585;28;20053;-72
2023/10/19 11:05:13;;;;;;;0.20;0.20;;;9.40;99.90;;;;;;5043482;28;20242;-72
2023/10/19 11:07:40;;;;;;;0.20;0.20;;;9.20;99.90;;;;;;5040819;28;20049;-72
2023/10/19 11:10:06;;;;;;;0.20;0.20;;;9.30;99.90;;;;;;5046673;28;20481;-72
2023/10/19 11:12:32;;;;;;;0.10;0.10;;;9.40;99.90;;;;;;5045006;28;20559;-72
2023/10/19 11:15:00;;;;;;;0.20;0.20;;;9.50;99.90;;;;;;5047385;28;20045;-72
2023/10/19 11:17:31;;;;;;;0.20;0.20;;;10.00;99.90;;;;;;5062001;28;20654;-71
2023/10/19 11:19:57;;;;;;;;;;;9.60;99.90;;;;;;5047231;28;20435;-71
2023/10/19 11:22:24;;;;;;;0.20;0.20;;;9.70;99.90;;;;;;5051093;28;19920;-71
2023/10/19 11:24:52;;;;;;;0.10;0.10;;;9.30;99.90;;;;;;5031536;28;20074;-71
2023/10/19 11:27:28;;;;;;;0.17;0.17;;;9.60;99.90;;;;;;5050169;28;20052;-72
2023/10/19 11:29:58;;;;;;;0.20;0.20;;;9.50;99.90;;;;;;5048493;28;20473;-71
2023/10/19 11:32:25;;;;;;;0.20;0.20;;;9.20;99.90;;;;;;5066269;28;20123;-72
2023/10/19 11:34:55;;;;;;;0.10;0.10;;;9.50;99.90;;;;;;5048003;28;20388;-72
2023/10/19 11:37:20;;;;;;;0.10;0.10;;;9.20;99.90;;;;;;5048073;28;20392;-72
2023/10/19 11:39:46;;;;;;;0.20;0.20;;;9.40;99.90;;;;;;5052869;28;20040;-72
2023/10/19 11:42:13;;;;;;;0.20;0.20;;;9.90;99.90;;;;;;5070293;28;20048;-72
2023/10/19 11:44:39;;;;;;;0.17;0.17;;;9.50;99.90;;;;;;5051351;28;20056;-72
2023/10/19 11:47:05;;;;;;;0.10;0.10;;;9.50;99.90;;;;;;5049999;28;20370;-72
2023/10/19 11:49:30;;;;;;;0.20;0.20;;;9.90;99.90;;;;;;5051165;28;20495;-72
2023/10/19 11:51:57;;;;;;;0.17;0.17;;;9.50;99.90;;;;;;5051138;28;20042;-72
2023/10/19 11:54:23;;;;;;;0.20;0.20;;;9.60;99.90;;;;;;5042307;28;20399;-72
2023/10/19 11:56:49;;;;;;;0.20;0.20;;;9.50;99.90;;;;;;5048216;28;20036;-72
2023/10/19 11:59:15;;;;;;;0.20;0.20;;;9.60;99.90;;;;;;5041283;28;20044;-72
2023/10/19 12:01:42;;;;;;;0.10;0.10;;;9.50;99.90;;;;;;5067022;28;20064;-72
2023/10/19 12:04:09;;;;;;;0.20;0.20;;;9.50;99.90;;;;;;5067659;28;20044;-72
2023/10/19 12:06:35;;;;;;;0.15;0.15;;;9.70;99.90;;;;;;5041202;28;20059;-72
2023/10/19 12:09:14;;;;;;;0.20;0.20;;;10.00;99.90;;;;;;5047681;28;20543;-72
2023/10/19 12:11:40;;;;;;;0.20;0.20;;;9.60;99.90;;;;;;5048937;28;20040;-71
2023/10/19 12:14:09;;;;;;;0.20;0.20;;;9.60;99.90;;;;;;5052417;28;20547;-72
2023/10/19 12:16:36;;;;;;;0.22;0.22;;;9.50;99.90;;;;;;5069267;28;20037;-72
2023/10/19 12:19:03;;;;;;;0.10;0.10;;;9.20;99.90;;;;;;5065704;28;20093;-72
2023/10/19 12:21:30;;;;;;;0.10;0.10;;;9.30;99.90;;;;;;5048336;28;20047;-72
2023/10/19 12:23:56;;;;;;;0.10;0.10;;;9.70;99.90;;;;;;5069635;28;20052;-72
2023/10/19 12:26:23;;;;;;;0.13;0.13;;;9.60;99.90;;;;;;5050533;28;20049;-72
2023/10/19 12:28:49;;;;;;;0.10;0.10;;;9.50;99.90;;;;;;5069646;28;20048;-72
2023/10/19 12:31:18;;;;;;;0.10;0.10;;;9.60;99.90;;;;;;5051204;28;20653;-72
2023/10/19 12:33:44;;;;;;;0.10;0.10;;;9.60;99.90;;;;;;5043242;28;20132;-72
2023/10/19 12:38:45;;;;;;;0.10;0.10;;;9.50;99.90;;;;;;5046568;28;20076;-72
2023/10/19 12:41:11;;;;;;;0.20;0.20;;;9.60;99.90;;;;;;5033513;28;20385;-72
2023/10/19 12:43:36;;;;;;;0.10;0.10;;;9.20;99.90;;;;;;5033078;28;20068;-72
2023/10/19 12:46:02;;;;;;;0.20;0.20;;;9.30;99.90;;;;;;5068988;28;20515;-72
2023/10/19 12:48:33;;;;;;;0.20;0.20;;;9.20;99.90;;;;;;5053840;28;20170;-71
2023/10/19 12:50:59;;;;;;;0.10;0.10;;;9.40;99.90;;;;;;5052711;28;20479;-72
2023/10/19 12:53:25;;;;;;;0.10;0.10;;;9.30;99.90;;;;;;5062458;28;20048;-72
2023/10/19 12:55:52;;;;;;;0.10;0.10;;;9.30;99.90;;;;;;5052993;28;20056;-72
2023/10/19 12:58:19;;;;;;;0.20;0.20;;;9.40;99.90;;;;;;5052661;28;20066;-72
2023/10/19 13:00:46;;;;;;;0.10;0.10;;;9.30;99.90;;;;;;5053993;28;20072;-72
2023/10/19 13:03:13;;;;;;;0.10;0.10;;;9.80;99.90;;;;;;5053650;28;20056;-72
2023/10/19 13:05:40;;;;;;;0.20;0.20;;;9.30;99.90;;;;;;5050664;28;20119;-72
2023/10/19 13:08:13;;;;;;;0.13;0.13;;;9.30;99.90;;;;;;5039874;28;20053;-72
2023/10/19 13:10:41;;;;;;;0.10;0.10;;;9.30;99.90;;;;;;5051154;28;20048;-72
2023/10/19 13:13:11;;;;;;;0.15;0.15;;;9.50;99.90;;;;;;5052041;28;20037;-72
2023/10/19 13:15:38;;;;;;;0.20;0.20;;;9.10;99.90;;;;;;5071316;28;20125;-72
2023/10/19 13:18:05;;;;;;;0.10;0.10;;;9.60;99.90;;;;;;5070934;28;20487;-72
2023/10/19 13:20:36;;;;;;;0.20;0.20;;;9.30;99.90;;;;;;5051090;28;20059;-72
2023/10/19 13:23:02;;;;;;;0.20;0.20;;;9.60;99.90;;;;;;5033471;28;20048;-72
2023/10/19 13:25:39;;;;;;;0.13;0.13;;;9.30;99.90;;;;;;5031420;28;20057;-72
2023/10/19 13:28:12;;;;;;;0.20;0.20;;;9.60;99.90;;;;;;5051053;28;20057;-72
2023/10/19 13:30:48;;;;;;;0.17;0.17;;;9.30;99.90;;;;;;5037524;28;20048;-72
2023/10/19 13:33:14;;;;;;;0.10;0.10;;;9.30;99.90;;;;;;5069717;28;20526;-72